Alpine Moment — VREV7 — position and weather

sailwx.info

Track history (hours):
 
Tides and Currents Weather Stations Pressure Air Temp Water Temp Dewpoint Dewpoint Depression Visibility Wind Speed Wind Dir Waves Ship Positions

Alpine Moment

Last reported at 2018-Feb-17 23:11 UTC. Time now 2018-Feb-18 05:04 UTC.
Position N 38°05' W 012°10'.

Length 183 m; draft 11.5 m.

Type: Tanker. MMSI: 477185800.

Date/timePositionNaut miles runAvg speedWind from/ knotsBaromVisibWave heightAir tempDewpointWater temp
2018-Feb-17 23:11N 38°05' W 012°10'  
2018-Feb-15 06:21N 49°48' W 003°26'3 9.6
2018-Feb-15 06:00N 49°50' W 003°21'5 9.8
2018-Feb-15 05:30N 49°52' W 003°15'510.2
2018-Feb-15 04:58N 49°55' W 003°08'510.5
2018-Feb-15 04:30N 49°58' W 003°01'511.1
2018-Feb-15 04:00N 49°60' W 002°53'611.9
2018-Feb-15 03:30N 50°01' W 002°44'712.8
2018-Feb-15 02:59N 50°03' W 002°34'4614.2
2018-Feb-14 23:45N 50°16' W 001°25'43 9.9
2018-Feb-14 19:26N 50°27' W 000°21'4 8.6
2018-Feb-14 18:56N 50°28' W 000°14'4 9.3
2018-Feb-14 18:30N 50°29' W 000°08'510.1
2018-Feb-14 18:00N 50°31' W 000°01'611.0
2018-Feb-14 17:30N 50°32' E 000°08'611.7
2018-Feb-14 17:00N 50°34' E 000°17'612.3
2018-Feb-14 16:30N 50°36' E 000°26'612.4
2018-Feb-14 16:00N 50°38' E 000°35'612.0
2018-Feb-14 15:30N 50°41' E 000°43'611.9
2018-Feb-14 15:00N 50°44' E 000°52'611.6
2018-Feb-14 14:30N 50°46' E 000°59'611.2
2018-Feb-14 14:00N 50°49' E 001°07'1010.5
2018-Feb-14 13:01N 50°56' E 001°20'1 9.4
2018-Feb-14 12:55N 50°57' E 001°21'4 9.5
2018-Feb-14 12:30N 50°60' E 001°25'5 9.1
2018-Feb-14 12:00N 51°03' E 001°29'4 8.3
2018-Feb-14 11:30N 51°06' E 001°34'4 8.3
2018-Feb-14 11:00N 51°09' E 001°39'5 9.5
2018-Feb-14 10:30N 51°13' E 001°44'510.4
2018-Feb-14 10:00N 51°17' E 001°48'611.5
2018-Feb-14 09:30N 51°22' E 001°52'612.3
2018-Feb-14 09:01N 51°28' E 001°57'713.0
2018-Feb-14 08:30N 51°32' E 002°05'613.3
2018-Feb-14 08:00N 51°37' E 002°12'713.4
2018-Feb-14 07:30N 51°42' E 002°19'813.5
2018-Feb-14 06:55N 51°48' E 002°28'45310.1
2018-Feb-12 09:54N 57°50' E 010°20'511.3
2018-Feb-12 09:30N 57°50' E 010°29'611.4
2018-Feb-12 08:56N 57°49' E 010°41'512.0
2018-Feb-12 08:29N 57°46' E 010°49'510.1
2018-Feb-12 08:00N 57°43' E 010°56'611.9
2018-Feb-12 07:30N 57°39' E 011°04'612.7
2018-Feb-12 07:00N 57°34' E 011°13'612.4
2018-Feb-12 06:30N 57°30' E 011°21'612.3
2018-Feb-12 06:00N 57°25' E 011°27'613.0
2018-Feb-12 05:30N 57°19' E 011°32'612.6
2018-Feb-12 05:00N 57°13' E 011°36'612.2
2018-Feb-12 04:30N 57°07' E 011°39'612.4
2018-Feb-12 04:00N 57°01' E 011°43'612.0
2018-Feb-12 03:30N 56°55' E 011°47'10312.2
2018-Feb-11 19:05N 55°15' E 011°05'113.5
2018-Feb-11 19:00N 55°14' E 011°06'612.2
2018-Feb-11 18:30N 55°09' E 010°60'713.5
2018-Feb-11 18:01N 55°03' E 010°60'713.5
2018-Feb-11 17:31N 54°57' E 010°54'714.9
2018-Feb-11 17:01N 54°50' E 010°50'714.3
2018-Feb-11 16:30N 54°43' E 010°47'4 8.6
2018-Feb-11 16:00N 54°39' E 010°51'3 6.0
2018-Feb-11 15:30N 54°38' E 010°55'611.8
2018-Feb-11 15:00N 54°36' E 011°05'713.8
2018-Feb-11 14:30N 54°34' E 011°16'713.4
2018-Feb-11 14:00N 54°31' E 011°27'713.2
2018-Feb-11 13:30N 54°29' E 011°37'712.9
2018-Feb-11 13:00N 54°26' E 011°48'1212.6
2018-Feb-11 12:01N 54°26' E 012°09'012.4
2018-Feb-11 12:00N 54°26' E 012°09'612.2
2018-Feb-11 11:30N 54°32' E 012°14'7612.4
2018-Feb-11 05:22N 55°08' E 014°10'512.8
2018-Feb-11 05:00N 55°11' E 014°14'613.1
2018-Feb-11 04:30N 55°17' E 014°21'613.2
2018-Feb-11 04:01N 55°22' E 014°28'812.9
2018-Feb-11 03:22N 55°27' E 014°39'513.3
2018-Feb-11 02:59N 55°30' E 014°47'713.2
2018-Feb-11 02:25N 55°34' E 014°58'613.1
2018-Feb-11 01:59N 55°36' E 015°07'613.0
2018-Feb-11 01:30N 55°38' E 015°17'713.0
2018-Feb-11 01:00N 55°40' E 015°29'613.0
2018-Feb-11 00:30N 55°42' E 015°40'612.9
2018-Feb-11 00:00N 55°43' E 015°51'713.1
2018-Feb-10 23:30N 55°45' E 016°02'713.3
2018-Feb-10 23:00N 55°47' E 016°13'713.3
2018-Feb-10 22:30N 55°48' E 016°25'713.1
2018-Feb-10 22:00N 55°50' E 016°36'713.2
2018-Feb-10 21:30N 55°51' E 016°48'  
Track history (hours):
 
Tides and Currents Weather Stations Pressure Air Temp Water Temp Dewpoint Dewpoint Depression Visibility Wind Speed Wind Dir Waves Ship Positions

Alpine Moment

Last reported at 2018-Feb-17 23:11 UTC. Time now 2018-Feb-18 05:04 UTC.
Position N 38°05' W 012°10'.

Length 183 m; draft 11.5 m.

Type: Tanker. MMSI: 477185800.

Date/timePositionNaut miles runAvg speedWind from/ knotsBaromVisibWave heightAir tempDewpointWater temp
2018-Feb-17 23:11N 38°05' W 012°10'  
2018-Feb-15 06:21N 49°48' W 003°26'3 9.6
2018-Feb-15 06:00N 49°50' W 003°21'5 9.8
2018-Feb-15 05:30N 49°52' W 003°15'510.2
2018-Feb-15 04:58N 49°55' W 003°08'510.5
2018-Feb-15 04:30N 49°58' W 003°01'511.1
2018-Feb-15 04:00N 49°60' W 002°53'611.9
2018-Feb-15 03:30N 50°01' W 002°44'712.8
2018-Feb-15 02:59N 50°03' W 002°34'4614.2
2018-Feb-14 23:45N 50°16' W 001°25'43 9.9
2018-Feb-14 19:26N 50°27' W 000°21'4 8.6
2018-Feb-14 18:56N 50°28' W 000°14'4 9.3
2018-Feb-14 18:30N 50°29' W 000°08'510.1
2018-Feb-14 18:00N 50°31' W 000°01'611.0
2018-Feb-14 17:30N 50°32' E 000°08'611.7
2018-Feb-14 17:00N 50°34' E 000°17'612.3
2018-Feb-14 16:30N 50°36' E 000°26'612.4
2018-Feb-14 16:00N 50°38' E 000°35'612.0
2018-Feb-14 15:30N 50°41' E 000°43'611.9
2018-Feb-14 15:00N 50°44' E 000°52'611.6
2018-Feb-14 14:30N 50°46' E 000°59'611.2
2018-Feb-14 14:00N 50°49' E 001°07'1010.5
2018-Feb-14 13:01N 50°56' E 001°20'1 9.4
2018-Feb-14 12:55N 50°57' E 001°21'4 9.5
2018-Feb-14 12:30N 50°60' E 001°25'5 9.1
2018-Feb-14 12:00N 51°03' E 001°29'4 8.3
2018-Feb-14 11:30N 51°06' E 001°34'4 8.3
2018-Feb-14 11:00N 51°09' E 001°39'5 9.5
2018-Feb-14 10:30N 51°13' E 001°44'510.4
2018-Feb-14 10:00N 51°17' E 001°48'611.5
2018-Feb-14 09:30N 51°22' E 001°52'612.3
2018-Feb-14 09:01N 51°28' E 001°57'713.0
2018-Feb-14 08:30N 51°32' E 002°05'613.3
2018-Feb-14 08:00N 51°37' E 002°12'713.4
2018-Feb-14 07:30N 51°42' E 002°19'813.5
2018-Feb-14 06:55N 51°48' E 002°28'45310.1
2018-Feb-12 09:54N 57°50' E 010°20'511.3
2018-Feb-12 09:30N 57°50' E 010°29'611.4
2018-Feb-12 08:56N 57°49' E 010°41'512.0
2018-Feb-12 08:29N 57°46' E 010°49'510.1
2018-Feb-12 08:00N 57°43' E 010°56'611.9
2018-Feb-12 07:30N 57°39' E 011°04'612.7
2018-Feb-12 07:00N 57°34' E 011°13'612.4
2018-Feb-12 06:30N 57°30' E 011°21'612.3
2018-Feb-12 06:00N 57°25' E 011°27'613.0
2018-Feb-12 05:30N 57°19' E 011°32'612.6
2018-Feb-12 05:00N 57°13' E 011°36'612.2
2018-Feb-12 04:30N 57°07' E 011°39'612.4
2018-Feb-12 04:00N 57°01' E 011°43'612.0
2018-Feb-12 03:30N 56°55' E 011°47'10312.2
2018-Feb-11 19:05N 55°15' E 011°05'113.5
2018-Feb-11 19:00N 55°14' E 011°06'612.2
2018-Feb-11 18:30N 55°09' E 010°60'713.5
2018-Feb-11 18:01N 55°03' E 010°60'713.5
2018-Feb-11 17:31N 54°57' E 010°54'714.9
2018-Feb-11 17:01N 54°50' E 010°50'714.3
2018-Feb-11 16:30N 54°43' E 010°47'4 8.6
2018-Feb-11 16:00N 54°39' E 010°51'3 6.0
2018-Feb-11 15:30N 54°38' E 010°55'611.8
2018-Feb-11 15:00N 54°36' E 011°05'713.8
2018-Feb-11 14:30N 54°34' E 011°16'713.4
2018-Feb-11 14:00N 54°31' E 011°27'713.2
2018-Feb-11 13:30N 54°29' E 011°37'712.9
2018-Feb-11 13:00N 54°26' E 011°48'1212.6
2018-Feb-11 12:01N 54°26' E 012°09'012.4
2018-Feb-11 12:00N 54°26' E 012°09'612.2
2018-Feb-11 11:30N 54°32' E 012°14'7612.4
2018-Feb-11 05:22N 55°08' E 014°10'512.8
2018-Feb-11 05:00N 55°11' E 014°14'613.1
2018-Feb-11 04:30N 55°17' E 014°21'613.2
2018-Feb-11 04:01N 55°22' E 014°28'812.9
2018-Feb-11 03:22N 55°27' E 014°39'513.3
2018-Feb-11 02:59N 55°30' E 014°47'713.2
2018-Feb-11 02:25N 55°34' E 014°58'613.1
2018-Feb-11 01:59N 55°36' E 015°07'613.0
2018-Feb-11 01:30N 55°38' E 015°17'713.0
2018-Feb-11 01:00N 55°40' E 015°29'613.0
2018-Feb-11 00:30N 55°42' E 015°40'612.9
2018-Feb-11 00:00N 55°43' E 015°51'713.1
2018-Feb-10 23:30N 55°45' E 016°02'713.3
2018-Feb-10 23:00N 55°47' E 016°13'713.3
2018-Feb-10 22:30N 55°48' E 016°25'713.1
2018-Feb-10 22:00N 55°50' E 016°36'713.2
2018-Feb-10 21:30N 55°51' E 016°48'  

Dump ship's entire track history